Portada
METAR-TAF:

METAR-TAF

Aeroports :

Hua Hin, Tailàndia

latitud: 12-35N, longitud: 099-57E, altitud: 5 m

Observació

L'informe es va fer fa 11 hores i 58 minuts, a les 11:00 UTC
Vent 3 kt del Sud-Est
Temperatura 28°C
Humitat 74%
Pressió 1012 hPa
Visibilitat: 5000 m
Escasses núvols a una alçada de 3000 ft
boirina

METAR: VTPH 201100Z 14003KT 5000 BR FEW030 28/23 Q1012 NOSIG

Hora: 05:58 (22:58 UTC)

Pronòstic

L'informe es va fer fa 5 hores i 58 minuts, a les 17:00 UTC
Pronòstic vàlid del 20 a les 18 UTC al 21 a les 18 UTC
Vent kt del Nord
Visibilitat: 6000 m
Escasses núvols a una alçada de 3000 ft
Evolucionant progressivament
l' 20 a les 22 UTC al 20 a les 24 UTC
Vent 5 kt del Oest/Sud-Oest
Visibilitat: 4000 m
boirina
Evolucionant progressivament
l' 21 a les 02 UTC al 21 a les 04 UTC
Vent 8 kt del Est/Sud-Est
Visibilitat: 7000 m

TAF: VTPH 201700Z 2018/2118 00000KT 6000 FEW030 BECMG 2022/2024 25005KT 4000 BR BECMG 2102/2104 12008KT 7000 NSW

Observacions i pronòstics meteorològics de més de 4000 aeroports (METAR i TAF).

Les estacions disponibles són els punts grocs i vermells al mapa.

Posi el ratolí al punt desitjat per veure el nom de l'estació.

Feu clic per veure les observacions i els pronòstics meteorològics.

Per canviar el mapa: feu clic els botons verds amb una creu de color negre per apropar; al botó verd amb un guió per allunyar la imatge; o en les fletxes verdes per a mapes adjacents.


METAR-TAF: